createdAt,value
2016-05-23T00:00:30.137Z,1003.97
2016-05-23T00:01:30.156Z,1003.98
2016-05-23T00:02:30.190Z,1003.95
2016-05-23T00:03:30.223Z,1003.98
2016-05-23T00:04:30.242Z,1003.96
2016-05-23T00:05:30.261Z,1003.93
2016-05-23T00:06:30.278Z,1003.89
2016-05-23T00:07:30.313Z,1003.96
2016-05-23T00:08:30.331Z,1003.91
2016-05-23T00:09:30.365Z,1003.86
2016-05-23T00:10:30.383Z,1003.87
2016-05-23T00:11:30.417Z,1003.92
2016-05-23T00:12:30.436Z,1003.88
2016-05-23T00:13:30.454Z,1003.88
2016-05-23T00:14:30.487Z,1003.88
2016-05-23T00:15:30.505Z,1003.83
2016-05-23T00:16:30.541Z,1003.81
2016-05-23T00:17:30.558Z,1003.78
2016-05-23T00:18:30.592Z,1003.81
2016-05-23T00:19:30.611Z,1003.82
2016-05-23T00:20:30.644Z,1003.84
2016-05-23T00:21:30.663Z,1003.81
2016-05-23T00:22:30.681Z,1003.85
2016-05-23T00:23:30.716Z,1003.85
2016-05-23T00:24:30.734Z,1003.88
2016-05-23T00:25:30.767Z,1003.8
2016-05-23T00:26:30.786Z,1003.85
2016-05-23T00:27:30.803Z,1003.83
2016-05-23T00:28:30.838Z,1003.84
2016-05-23T00:29:30.856Z,1003.81
2016-05-23T00:30:30.890Z,1003.81
2016-05-23T00:31:30.909Z,1003.87
2016-05-23T00:32:30.942Z,1003.84
2016-05-23T00:33:30.961Z,1003.84
2016-05-23T00:34:30.979Z,1003.82
2016-05-23T00:35:31.013Z,1003.83
2016-05-23T00:36:31.047Z,1003.79
2016-05-23T00:37:31.065Z,1003.83
2016-05-23T00:38:31.084Z,1003.85
2016-05-23T00:39:31.102Z,1003.86
2016-05-23T00:40:31.136Z,1003.87
2016-05-23T00:41:31.169Z,1003.88
2016-05-23T00:42:31.188Z,1003.86
2016-05-23T00:43:31.206Z,1003.89
2016-05-23T00:44:31.241Z,1003.88
2016-05-23T00:45:31.258Z,1003.87
2016-05-23T00:46:31.293Z,1003.91
2016-05-23T00:47:31.311Z,1003.87
2016-05-23T00:48:31.329Z,1003.93
2016-05-23T00:49:31.363Z,1003.94
2016-05-23T00:50:31.382Z,1003.93
2016-05-23T00:51:31.416Z,1004
2016-05-23T00:52:31.434Z,1004.01
2016-05-23T00:53:31.451Z,1004.03
2016-05-23T00:54:31.502Z,1004
2016-05-23T00:55:31.504Z,1004.01
2016-05-23T00:56:31.537Z,1004.02
2016-05-23T00:57:31.557Z,1004.01
2016-05-23T00:58:31.575Z,1003.94
2016-05-23T00:59:31.609Z,1003.94
2016-05-23T01:00:31.642Z,1003.88
2016-05-23T01:01:31.662Z,1003.91
2016-05-23T01:02:31.679Z,1003.86
2016-05-23T01:03:31.713Z,1003.91
2016-05-23T01:04:31.732Z,1003.96
2016-05-23T01:05:31.765Z,1003.9
2016-05-23T01:06:31.784Z,1003.88
2016-05-23T01:07:31.817Z,1003.89
2016-05-23T01:08:31.836Z,1003.88
2016-05-23T01:09:31.855Z,1003.92
2016-05-23T01:10:31.888Z,1003.94
2016-05-23T01:11:31.906Z,1004.02
2016-05-23T01:12:31.941Z,1004.04
2016-05-23T01:13:31.959Z,1004.13
2016-05-23T01:14:32.071Z,1004.17
2016-05-23T01:15:32.011Z,1004.18
2016-05-23T01:16:32.030Z,1004.21
2016-05-23T01:17:32.063Z,1004.2
2016-05-23T01:18:32.082Z,1004.22
2016-05-23T01:19:32.116Z,1004.24
2016-05-23T01:20:32.135Z,1004.27
2016-05-23T01:21:32.152Z,1004.29
2016-05-23T01:22:32.186Z,1004.36
2016-05-23T01:23:32.204Z,1004.42
2016-05-23T01:24:32.238Z,1004.52
2016-05-23T01:25:32.257Z,1004.54
2016-05-23T01:26:32.275Z,1004.58
2016-05-23T01:27:32.310Z,1004.6
2016-05-23T01:28:32.327Z,1004.57
2016-05-23T01:29:32.361Z,1004.58
2016-05-23T01:30:32.379Z,1004.57
2016-05-23T01:31:32.414Z,1004.47
2016-05-23T01:32:32.432Z,1004.55
2016-05-23T01:33:32.465Z,1004.51
2016-05-23T01:34:32.484Z,1004.52
2016-05-23T01:35:32.503Z,1004.54
2016-05-23T01:36:32.536Z,1004.55
2016-05-23T01:37:32.555Z,1004.59
2016-05-23T01:38:32.588Z,1004.54
2016-05-23T01:39:32.607Z,1004.6
2016-05-23T01:40:32.641Z,1004.61
2016-05-23T01:41:32.659Z,1004.62
2016-05-23T01:42:32.678Z,1004.58
2016-05-23T01:43:32.711Z,1004.63
2016-05-23T01:44:32.730Z,1004.56
2016-05-23T01:45:32.764Z,1004.56
2016-05-23T01:46:32.797Z,1004.52
2016-05-23T01:47:32.816Z,1004.53
2016-05-23T01:48:32.835Z,1004.6
2016-05-23T01:49:32.852Z,1004.56
2016-05-23T01:50:32.886Z,1004.55
2016-05-23T01:51:32.905Z,1004.57
2016-05-23T01:52:32.938Z,1004.63
2016-05-23T01:53:32.957Z,1004.6
2016-05-23T01:54:32.991Z,1004.62
2016-05-23T01:55:33.010Z,1004.61
2016-05-23T01:56:33.027Z,1004.59
2016-05-23T01:57:33.062Z,1004.6
2016-05-23T01:58:33.080Z,1004.6
2016-05-23T01:59:33.114Z,1004.56
2016-05-23T02:00:33.132Z,1004.61
2016-05-23T02:01:33.150Z,1004.63
2016-05-23T02:02:33.185Z,1004.64
2016-05-23T02:03:33.203Z,1004.64
2016-05-23T02:04:33.236Z,1004.71
2016-05-23T02:05:33.256Z,1004.66
2016-05-23T02:06:33.273Z,1004.68
2016-05-23T02:07:33.306Z,1004.65
2016-05-23T02:08:33.326Z,1004.62
2016-05-23T02:09:33.376Z,1004.66
2016-05-23T02:10:33.378Z,1004.66
2016-05-23T02:11:33.412Z,1004.63
2016-05-23T02:12:33.430Z,1004.68
2016-05-23T02:13:33.447Z,1004.67
2016-05-23T02:14:33.483Z,1004.69
2016-05-23T02:15:33.500Z,1004.71
2016-05-23T02:16:33.535Z,1004.72
2016-05-23T02:17:33.568Z,1004.69
2016-05-23T02:18:33.586Z,1004.76
2016-05-23T02:19:33.605Z,1004.78
2016-05-23T02:20:33.624Z,1004.85
2016-05-23T02:21:33.658Z,1004.89
2016-05-23T02:22:33.676Z,1004.87
2016-05-23T02:23:33.694Z,1004.92
2016-05-23T02:24:33.728Z,1004.95
2016-05-23T02:25:33.746Z,1004.97
2016-05-23T02:26:33.780Z,1005.02
2016-05-23T02:27:33.799Z,1004.97
2016-05-23T02:28:33.817Z,1005.02
2016-05-23T02:29:33.851Z,1005.04
2016-05-23T02:30:33.869Z,1005.07
2016-05-23T02:31:33.903Z,1005.06
2016-05-23T02:32:33.922Z,1005.06
2016-05-23T02:33:33.956Z,1005.09
2016-05-23T02:34:33.974Z,1005.03
2016-05-23T02:35:33.992Z,1005.09
2016-05-23T02:36:34.025Z,1005.09
2016-05-23T02:37:34.045Z,1005.09
2016-05-23T02:38:34.078Z,1005.11
2016-05-23T02:39:34.097Z,1005.1
2016-05-23T02:40:34.130Z,1005.13
2016-05-23T02:41:34.149Z,1005.16
2016-05-23T02:42:34.183Z,1005.17
2016-05-23T02:43:34.201Z,1005.14
2016-05-23T02:44:34.219Z,1005.17
2016-05-23T02:45:34.253Z,1005.14
2016-05-23T02:46:34.272Z,1005.16
2016-05-23T02:47:34.289Z,1005.18
2016-05-23T02:48:34.324Z,1005.19
2016-05-23T02:49:34.342Z,1005.16
2016-05-23T02:50:34.377Z,1005.17
2016-05-23T02:51:34.394Z,1005.16
2016-05-23T02:52:34.413Z,1005.21
2016-05-23T02:53:34.446Z,1005.21
2016-05-23T02:54:34.465Z,1005.23
2016-05-23T02:55:34.499Z,1005.27
2016-05-23T02:56:34.518Z,1005.26
2016-05-23T02:57:34.536Z,1005.25
2016-05-23T02:58:34.569Z,1005.31
2016-05-23T02:59:35.134Z,1005.32
2016-05-23T03:00:34.621Z,1005.29
2016-05-23T03:01:34.640Z,1005.33
2016-05-23T03:02:34.659Z,1005.32
2016-05-23T03:03:34.692Z,1005.36
2016-05-23T03:04:34.710Z,1005.37
2016-05-23T03:05:34.744Z,1005.37
2016-05-23T03:06:34.762Z,1005.39
2016-05-23T03:07:34.797Z,1005.42
2016-05-23T03:08:34.815Z,1005.44
2016-05-23T03:09:34.833Z,1005.4
2016-05-23T03:10:34.867Z,1005.44
2016-05-23T03:11:34.886Z,1005.45
2016-05-23T03:12:34.904Z,1005.44
2016-05-23T03:13:34.938Z,1005.44
2016-05-23T03:14:34.956Z,1005.46
2016-05-23T03:15:34.990Z,1005.44
2016-05-23T03:16:35.009Z,1005.47
2016-05-23T03:17:35.027Z,1005.45
2016-05-23T03:18:35.060Z,1005.49
2016-05-23T03:19:35.080Z,1005.54
2016-05-23T03:20:35.113Z,1005.51
2016-05-23T03:21:35.131Z,1005.49
2016-05-23T03:22:35.150Z,1005.55
2016-05-23T03:23:35.183Z,1005.49
2016-05-23T03:24:35.202Z,1005.54
2016-05-23T03:25:35.236Z,1005.52
2016-05-23T03:26:35.255Z,1005.49
2016-05-23T03:27:35.272Z,1005.51
2016-05-23T03:28:35.306Z,1005.48
2016-05-23T03:29:35.324Z,1005.52
2016-05-23T03:30:35.359Z,1005.51
2016-05-23T03:31:35.377Z,1005.56
2016-05-23T03:32:35.395Z,1005.56
2016-05-23T03:33:35.429Z,1005.55
2016-05-23T03:34:35.447Z,1005.58
2016-05-23T03:35:35.482Z,1005.61
2016-05-23T03:36:35.500Z,1005.57
2016-05-23T03:37:35.518Z,1005.55
2016-05-23T03:38:35.551Z,1005.59
2016-05-23T03:39:35.570Z,1005.61
2016-05-23T03:40:35.589Z,1005.61
2016-05-23T03:41:35.623Z,1005.57
2016-05-23T03:42:35.641Z,1005.6
2016-05-23T03:43:35.675Z,1005.64
2016-05-23T03:44:35.693Z,1005.6
2016-05-23T03:45:35.727Z,1005.56
2016-05-23T03:46:35.745Z,1005.59
2016-05-23T03:47:35.763Z,1005.6
2016-05-23T03:48:35.783Z,1005.64
2016-05-23T03:49:35.816Z,1005.7
2016-05-23T03:50:35.834Z,1005.59
2016-05-23T03:51:35.869Z,1005.67
2016-05-23T03:52:35.886Z,1005.66
2016-05-23T03:53:35.921Z,1005.74
2016-05-23T03:54:35.939Z,1005.74
2016-05-23T03:55:35.958Z,1005.79
2016-05-23T03:56:35.991Z,1005.82
2016-05-23T03:57:36.010Z,1005.85
2016-05-23T03:58:36.027Z,1005.87
2016-05-23T03:59:36.280Z,1005.87
2016-05-23T04:00:36.080Z,1005.92
2016-05-23T04:01:36.113Z,1005.89
2016-05-23T04:02:36.132Z,1005.91
2016-05-23T04:03:36.151Z,1005.91
2016-05-23T04:04:36.185Z,1005.9
2016-05-23T04:05:36.203Z,1005.95
2016-05-23T04:06:36.237Z,1005.98
2016-05-23T04:07:36.255Z,1005.96
2016-05-23T04:08:36.290Z,1005.97
2016-05-23T04:09:36.307Z,1005.96
2016-05-23T04:10:36.326Z,1005.95
2016-05-23T04:11:36.359Z,1005.99
2016-05-23T04:12:36.378Z,1005.99
2016-05-23T04:13:36.396Z,1006.01
2016-05-23T04:14:36.431Z,1006.04
2016-05-23T04:15:36.448Z,1006.05
2016-05-23T04:16:36.483Z,1006.14
2016-05-23T04:17:36.501Z,1006.12
2016-05-23T04:18:36.519Z,1006.12
2016-05-23T04:19:36.553Z,1006.12
2016-05-23T04:20:36.572Z,1006.17
2016-05-23T04:21:36.589Z,1006.17
2016-05-23T04:22:36.624Z,1006.17
2016-05-23T04:23:36.642Z,1006.19
2016-05-23T04:24:36.675Z,1006.21
2016-05-23T04:25:36.694Z,1006.18
2016-05-23T04:26:36.713Z,1006.26
2016-05-23T04:27:36.747Z,1006.25
2016-05-23T04:28:36.765Z,1006.26
2016-05-23T04:29:36.799Z,1006.3
2016-05-23T04:30:36.816Z,1006.28
2016-05-23T04:31:36.851Z,1006.33
2016-05-23T04:32:36.868Z,1006.34
2016-05-23T04:33:36.887Z,1006.38
2016-05-23T04:34:36.906Z,1006.4
2016-05-23T04:35:36.940Z,1006.36
2016-05-23T04:36:36.958Z,1006.37
2016-05-23T04:37:36.992Z,1006.41
2016-05-23T04:38:37.010Z,1006.45
2016-05-23T04:39:37.029Z,1006.49
2016-05-23T04:40:37.062Z,1006.52
2016-05-23T04:41:37.081Z,1006.53
2016-05-23T04:42:37.115Z,1006.53
2016-05-23T04:43:37.134Z,1006.56
2016-05-23T04:44:37.433Z,1006.56
2016-05-23T04:45:37.186Z,1006.57
2016-05-23T04:46:37.204Z,1006.58
2016-05-23T04:47:37.222Z,1006.6
2016-05-23T04:48:37.256Z,1006.63
2016-05-23T04:49:37.275Z,1006.66
2016-05-23T04:50:37.309Z,1006.7
2016-05-23T04:51:37.328Z,1006.65
2016-05-23T04:52:37.360Z,1006.64
2016-05-23T04:53:37.379Z,1006.68
2016-05-23T04:54:37.397Z,1006.71
2016-05-23T04:55:37.431Z,1006.74
2016-05-23T04:56:37.450Z,1006.74
2016-05-23T04:57:37.500Z,1006.77
2016-05-23T04:58:37.502Z,1006.78
2016-05-23T04:59:37.519Z,1006.78
2016-05-23T05:00:37.555Z,1006.83
2016-05-23T05:01:37.572Z,1006.85
2016-05-23T05:02:37.591Z,1006.88
2016-05-23T05:03:37.624Z,1006.89
2016-05-23T05:04:37.643Z,1006.88
2016-05-23T05:05:37.661Z,1006.92
2016-05-23T05:06:37.696Z,1006.95
2016-05-23T05:07:37.713Z,1006.93
2016-05-23T05:08:37.748Z,1006.95
2016-05-23T05:09:37.766Z,1006.93
2016-05-23T05:10:37.784Z,1006.95
2016-05-23T05:11:37.818Z,1006.95
2016-05-23T05:12:37.852Z,1006.92
2016-05-23T05:13:37.854Z,1006.91
2016-05-23T05:14:37.904Z,1006.95
2016-05-23T05:15:37.906Z,1006.97
2016-05-23T05:16:37.941Z,1006.96
2016-05-23T05:17:37.959Z,1006.97
2016-05-23T05:18:37.993Z,1007
2016-05-23T05:19:38.011Z,1007.01
2016-05-23T05:20:38.031Z,1006.99
2016-05-23T05:21:38.064Z,1007.05
2016-05-23T05:22:38.081Z,1007.06
2016-05-23T05:23:38.117Z,1007.07
2016-05-23T05:24:38.134Z,1007.08
2016-05-23T05:25:38.152Z,1007.06
2016-05-23T05:26:38.187Z,1007.07
2016-05-23T05:27:38.205Z,1007.14
2016-05-23T05:28:38.239Z,1007.21
2016-05-23T05:29:38.258Z,1007.21
2016-05-23T05:30:38.291Z,1007.19
2016-05-23T05:31:38.310Z,1007.19
2016-05-23T05:32:38.327Z,1007.18
2016-05-23T05:33:38.361Z,1007.2
2016-05-23T05:34:38.380Z,1007.24
2016-05-23T05:35:38.414Z,1007.28
2016-05-23T05:36:39.338Z,1007.25
2016-05-23T05:37:38.466Z,1007.26
2016-05-23T05:38:38.485Z,1007.24
2016-05-23T05:39:38.503Z,1007.3
2016-05-23T05:40:38.537Z,1007.26
2016-05-23T05:41:38.555Z,1007.24
2016-05-23T05:42:38.590Z,1007.34
2016-05-23T05:43:38.607Z,1007.32
2016-05-23T05:44:38.641Z,1007.32
2016-05-23T05:45:38.659Z,1007.33
2016-05-23T05:46:38.693Z,1007.38
2016-05-23T05:47:38.712Z,1007.4
2016-05-23T05:48:38.745Z,1007.43
2016-05-23T05:49:38.764Z,1007.46
2016-05-23T05:50:38.798Z,1007.5
2016-05-23T05:51:38.817Z,1007.55
2016-05-23T05:52:38.850Z,1007.58
2016-05-23T05:53:38.869Z,1007.58
2016-05-23T05:54:38.887Z,1007.6
2016-05-23T05:55:38.920Z,1007.6
2016-05-23T05:56:38.939Z,1007.62
2016-05-23T05:57:38.973Z,1007.65
2016-05-23T05:58:38.992Z,1007.62
2016-05-23T05:59:39.025Z,1007.63
2016-05-23T06:00:39.044Z,1007.65
2016-05-23T06:01:39.078Z,1007.7
2016-05-23T06:02:39.097Z,1007.68
2016-05-23T06:03:39.130Z,1007.67
2016-05-23T06:04:39.149Z,1007.69
2016-05-23T06:05:39.198Z,1007.68
2016-05-23T06:06:39.216Z,1007.7
2016-05-23T06:07:39.234Z,1007.66
2016-05-23T06:08:39.252Z,1007.7
2016-05-23T06:09:39.287Z,1007.73
2016-05-23T06:10:39.305Z,1007.71
2016-05-23T06:11:39.323Z,1007.73
2016-05-23T06:12:39.357Z,1007.73
2016-05-23T06:13:39.375Z,1007.72
2016-05-23T06:14:39.410Z,1007.81
2016-05-23T06:15:39.443Z,1007.74
2016-05-23T06:16:39.462Z,1007.79
2016-05-23T06:17:39.496Z,1007.81
2016-05-23T06:18:39.515Z,1007.82
2016-05-23T06:19:39.564Z,1007.81
2016-05-23T06:20:39.567Z,1007.76
2016-05-23T06:21:39.585Z,1007.85
2016-05-23T06:22:39.618Z,1007.79
2016-05-23T06:23:39.636Z,1007.8
2016-05-23T06:24:39.670Z,1007.84
2016-05-23T06:25:39.689Z,1007.87
2016-05-23T06:26:39.723Z,1007.85
2016-05-23T06:27:39.756Z,1007.86
2016-05-23T06:28:39.775Z,1007.85
2016-05-23T06:29:40.231Z,1007.87
2016-05-23T06:30:39.828Z,1007.91
2016-05-23T06:31:39.846Z,1007.88
2016-05-23T06:32:39.880Z,1007.91
2016-05-23T06:33:39.898Z,1007.96
2016-05-23T06:34:39.933Z,1007.94
2016-05-23T06:35:39.950Z,1007.96
2016-05-23T06:36:39.985Z,1007.98
2016-05-23T06:37:40.003Z,1007.95
2016-05-23T06:38:40.037Z,1007.98
2016-05-23T06:39:40.054Z,1007.96
2016-05-23T06:40:40.089Z,1008.05
2016-05-23T06:41:40.107Z,1008.01
2016-05-23T06:42:40.126Z,1008.09
2016-05-23T06:43:40.159Z,1008.03
2016-05-23T06:44:40.287Z,1008.07
2016-05-23T06:45:40.212Z,1008.1
2016-05-23T06:46:40.230Z,1008.12
2016-05-23T06:47:40.265Z,1008.11
2016-05-23T06:48:40.308Z,1008.13
2016-05-23T06:49:40.367Z,1008.13
2016-05-23T06:50:40.411Z,1008.17
2016-05-23T06:51:40.470Z,1008.17
2016-05-23T06:52:40.514Z,1008.17
2016-05-23T06:53:40.556Z,1008.17
2016-05-23T06:54:40.584Z,1008.15
2016-05-23T06:55:40.627Z,1008.23
2016-05-23T06:56:40.656Z,1008.24
2016-05-23T06:57:40.682Z,1008.24
2016-05-23T06:58:40.720Z,1008.21
2016-05-23T06:59:41.334Z,1008.25
2016-05-23T07:00:40.778Z,1008.27
2016-05-23T07:01:40.815Z,1008.28
2016-05-23T07:02:40.836Z,1008.28
2016-05-23T07:03:40.856Z,1008.31
2016-05-23T07:04:40.891Z,1008.3
2016-05-23T07:05:40.941Z,1008.35
2016-05-23T07:06:40.945Z,1008.32
2016-05-23T07:07:40.965Z,1008.32
2016-05-23T07:08:40.999Z,1008.32
2016-05-23T07:09:41.033Z,1008.33
2016-05-23T07:10:41.053Z,1008.39
2016-05-23T07:11:41.070Z,1008.37
2016-05-23T07:12:41.105Z,1008.38
2016-05-23T07:13:41.124Z,1008.33
2016-05-23T07:14:41.159Z,1008.36
2016-05-23T07:15:41.176Z,1008.33
2016-05-23T07:16:41.211Z,1008.38
2016-05-23T07:17:41.230Z,1008.37
2016-05-23T07:18:41.248Z,1008.35
2016-05-23T07:19:41.282Z,1008.28
2016-05-23T07:20:41.301Z,1008.31
2016-05-23T07:21:41.335Z,1008.39
2016-05-23T07:22:41.353Z,1008.35
2016-05-23T07:23:41.387Z,1008.37
2016-05-23T07:24:41.405Z,1008.42
2016-05-23T07:25:41.439Z,1008.4
2016-05-23T07:26:41.473Z,1008.41
2016-05-23T07:27:41.490Z,1008.41
2016-05-23T07:28:41.509Z,1008.41
2016-05-23T07:29:41.543Z,1008.44
2016-05-23T07:30:41.562Z,1008.46
2016-05-23T07:31:41.595Z,1008.49
2016-05-23T07:32:41.614Z,1008.46
2016-05-23T07:33:41.647Z,1008.45
2016-05-23T07:34:41.682Z,1008.46
2016-05-23T07:35:41.700Z,1008.48
2016-05-23T07:36:41.719Z,1008.46
2016-05-23T07:37:41.737Z,1008.51
2016-05-23T07:38:41.771Z,1008.49
2016-05-23T07:39:41.805Z,1008.46
2016-05-23T07:40:41.823Z,1008.47
2016-05-23T07:41:41.841Z,1008.51
2016-05-23T07:42:41.875Z,1008.49
2016-05-23T07:43:41.893Z,1008.46
2016-05-23T07:44:42.241Z,1008.52
2016-05-23T07:45:41.946Z,1008.51
2016-05-23T07:46:41.979Z,1008.48
2016-05-23T07:47:41.998Z,1008.45
2016-05-23T07:48:42.032Z,1008.45
2016-05-23T07:49:42.065Z,1008.45
2016-05-23T07:50:42.085Z,1008.44
2016-05-23T07:51:42.118Z,1008.54
2016-05-23T07:52:42.137Z,1008.52
2016-05-23T07:53:42.154Z,1008.47
2016-05-23T07:54:42.188Z,1008.57
2016-05-23T07:55:42.207Z,1008.47
2016-05-23T07:56:42.241Z,1008.47
2016-05-23T07:57:42.259Z,1008.48
2016-05-23T07:58:42.278Z,1008.55
2016-05-23T07:59:42.326Z,1008.52
2016-05-23T08:00:42.330Z,1008.5
2016-05-23T08:01:42.364Z,1008.51
2016-05-23T08:02:42.382Z,1008.51
2016-05-23T08:03:42.416Z,1008.53
2016-05-23T08:04:42.434Z,1008.53
2016-05-23T08:05:42.468Z,1008.54
2016-05-23T08:06:42.503Z,1008.52
2016-05-23T08:07:42.520Z,1008.53
2016-05-23T08:08:42.570Z,1008.54
2016-05-23T08:09:42.573Z,1008.57
2016-05-23T08:10:42.592Z,1008.59
2016-05-23T08:11:42.625Z,1008.57
2016-05-23T08:12:42.644Z,1008.55
2016-05-23T08:13:42.678Z,1008.55
2016-05-23T08:14:42.727Z,1008.55
2016-05-23T08:15:42.729Z,1008.55
2016-05-23T08:16:42.747Z,1008.56
2016-05-23T08:17:42.782Z,1008.51
2016-05-23T08:18:42.800Z,1008.55
2016-05-23T08:19:42.835Z,1008.5
2016-05-23T08:20:42.852Z,1008.55
2016-05-23T08:21:42.886Z,1008.54
2016-05-23T08:22:42.904Z,1008.55
2016-05-23T08:23:42.954Z,1008.56
2016-05-23T08:24:42.956Z,1008.58
2016-05-23T08:25:42.976Z,1008.59
2016-05-23T08:26:43.009Z,1008.59
2016-05-23T08:27:43.027Z,1008.61
2016-05-23T08:28:43.061Z,1008.62
2016-05-23T08:29:43.095Z,1008.61
2016-05-23T08:30:43.114Z,1008.62
2016-05-23T08:31:43.148Z,1008.63
2016-05-23T08:32:43.165Z,1008.65
2016-05-23T08:33:43.184Z,1008.67
2016-05-23T08:34:43.218Z,1008.62
2016-05-23T08:35:43.237Z,1008.59
2016-05-23T08:36:43.270Z,1008.65
2016-05-23T08:37:43.289Z,1008.66
2016-05-23T08:38:43.323Z,1008.68
2016-05-23T08:39:43.341Z,1008.64
2016-05-23T08:40:43.375Z,1008.66
2016-05-23T08:41:43.393Z,1008.68
2016-05-23T08:42:43.427Z,1008.71
2016-05-23T08:43:43.445Z,1008.69
2016-05-23T08:44:43.480Z,1008.7
2016-05-23T08:45:43.498Z,1008.66
2016-05-23T08:46:43.516Z,1008.74
2016-05-23T08:47:43.550Z,1008.73
2016-05-23T08:48:43.569Z,1008.7
2016-05-23T08:49:43.602Z,1008.74
2016-05-23T08:50:43.620Z,1008.74
2016-05-23T08:51:43.654Z,1008.76
2016-05-23T08:52:43.673Z,1008.79
2016-05-23T08:53:43.707Z,1008.83
2016-05-23T08:54:43.725Z,1008.83
2016-05-23T08:55:43.760Z,1008.86
2016-05-23T08:56:43.777Z,1008.88
2016-05-23T08:57:43.812Z,1008.83
2016-05-23T08:58:43.829Z,1008.84
2016-05-23T08:59:43.973Z,1008.86
2016-05-23T09:00:43.882Z,1008.82
2016-05-23T09:01:43.915Z,1008.83
2016-05-23T09:02:43.934Z,1008.86
2016-05-23T09:03:43.968Z,1008.88
2016-05-23T09:04:43.987Z,1008.88
2016-05-23T09:05:44.020Z,1008.86
2016-05-23T09:06:44.039Z,1008.91
2016-05-23T09:07:44.073Z,1008.91
2016-05-23T09:08:44.091Z,1008.92
2016-05-23T09:09:44.125Z,1008.98
2016-05-23T09:10:44.142Z,1009.01
2016-05-23T09:11:44.161Z,1008.96
2016-05-23T09:12:44.195Z,1009.01
2016-05-23T09:13:44.214Z,1009.03
2016-05-23T09:14:44.264Z,1009.06
2016-05-23T09:15:44.281Z,1009.04
2016-05-23T09:16:44.300Z,1009.08
2016-05-23T09:17:44.334Z,1009.05
2016-05-23T09:18:44.353Z,1009.11
2016-05-23T09:19:44.371Z,1009.12
2016-05-23T09:20:44.405Z,1009.09
2016-05-23T09:21:44.422Z,1009.09
2016-05-23T09:22:44.629Z,1009.1
2016-05-23T09:23:44.474Z,1009.08
2016-05-23T09:24:44.509Z,1009.15
2016-05-23T09:25:44.543Z,1009.17
2016-05-23T09:26:44.561Z,1009.15
2016-05-23T09:27:44.579Z,1009.15
2016-05-23T09:28:44.613Z,1009.17
2016-05-23T09:29:44.648Z,1009.19
2016-05-23T09:30:44.665Z,1009.19
2016-05-23T09:31:44.934Z,1009.18
2016-05-23T09:32:44.718Z,1009.19
2016-05-23T09:33:44.970Z,1009.18
2016-05-23T09:34:44.817Z,1009.16
2016-05-23T09:35:44.835Z,1009.22
2016-05-23T09:36:44.853Z,1009.15
2016-05-23T09:37:44.840Z,1009.16
2016-05-23T09:38:44.875Z,1009.17
2016-05-23T09:39:44.892Z,1009.15
2016-05-23T09:40:44.927Z,1009.25
2016-05-23T09:41:44.945Z,1009.23
2016-05-23T09:42:44.979Z,1009.2
2016-05-23T09:43:44.998Z,1009.22
2016-05-23T09:44:45.281Z,1009.28
2016-05-23T09:45:45.097Z,1009.26
2016-05-23T09:46:45.083Z,1009.23
2016-05-23T09:47:45.103Z,1009.24
2016-05-23T09:48:45.136Z,1009.28
2016-05-23T09:49:45.154Z,1009.31
2016-05-23T09:50:45.188Z,1009.25
2016-05-23T09:51:45.207Z,1009.25
2016-05-23T09:52:45.241Z,1009.27
2016-05-23T09:53:45.258Z,1009.3
2016-05-23T09:54:45.293Z,1009.27
2016-05-23T09:55:45.311Z,1009.3
2016-05-23T09:56:45.345Z,1009.31
2016-05-23T09:57:45.363Z,1009.28
2016-05-23T09:58:45.397Z,1009.31
2016-05-23T09:59:45.416Z,1009.34
2016-05-23T10:00:45.449Z,1009.33
2016-05-23T10:01:45.468Z,1009.35
2016-05-23T10:02:45.502Z,1009.4
2016-05-23T10:03:45.521Z,1009.38
2016-05-23T10:04:45.554Z,1009.41
2016-05-23T10:05:45.573Z,1009.39
2016-05-23T10:06:45.606Z,1009.43
2016-05-23T10:07:45.625Z,1009.42
2016-05-23T10:08:45.658Z,1009.45
2016-05-23T10:09:45.676Z,1009.48
2016-05-23T10:10:45.711Z,1009.44
2016-05-23T10:11:45.729Z,1009.44
2016-05-23T10:12:45.778Z,1009.42
2016-05-23T10:13:45.781Z,1009.51
2016-05-23T10:14:45.815Z,1009.48
2016-05-23T10:15:45.834Z,1009.44
2016-05-23T10:16:45.867Z,1009.46
2016-05-23T10:17:45.885Z,1009.53
2016-05-23T10:18:45.920Z,1009.53
2016-05-23T10:19:45.938Z,1009.49
2016-05-23T10:20:45.972Z,1009.55
2016-05-23T10:21:45.990Z,1009.54
2016-05-23T10:22:46.024Z,1009.57
2016-05-23T10:23:46.043Z,1009.58
2016-05-23T10:24:46.077Z,1009.64
2016-05-23T10:25:46.094Z,1009.69
2016-05-23T10:26:46.129Z,1009.68
2016-05-23T10:27:46.163Z,1009.7
2016-05-23T10:28:46.182Z,1009.63
2016-05-23T10:29:46.230Z,1009.68
2016-05-23T10:30:46.249Z,1009.67
2016-05-23T10:31:46.268Z,1009.65
2016-05-23T10:32:46.286Z,1009.66
2016-05-23T10:33:46.303Z,1009.67
2016-05-23T10:34:46.337Z,1009.7
2016-05-23T10:35:46.371Z,1009.71
2016-05-23T10:36:46.390Z,1009.73
2016-05-23T10:37:46.455Z,1009.72
2016-05-23T10:38:46.442Z,1009.73
2016-05-23T10:39:46.476Z,1009.7
2016-05-23T10:40:46.495Z,1009.76
2016-05-23T10:41:46.528Z,1009.81
2016-05-23T10:42:46.547Z,1009.81
2016-05-23T10:43:46.580Z,1009.73
2016-05-23T10:44:46.599Z,1009.81
2016-05-23T10:45:46.633Z,1009.82
2016-05-23T10:46:46.651Z,1009.83
2016-05-23T10:47:46.685Z,1009.87
2016-05-23T10:48:46.703Z,1009.87
2016-05-23T10:49:46.738Z,1009.89
2016-05-23T10:50:46.756Z,1009.86
2016-05-23T10:51:46.789Z,1009.89
2016-05-23T10:52:46.824Z,1009.9
2016-05-23T10:53:46.842Z,1009.94
2016-05-23T10:54:46.861Z,1009.94
2016-05-23T10:55:46.894Z,1009.92
2016-05-23T10:56:46.912Z,1009.93
2016-05-23T10:57:46.946Z,1009.95
2016-05-23T10:58:46.965Z,1009.99
2016-05-23T10:59:46.999Z,1010
2016-05-23T11:00:47.017Z,1009.99
2016-05-23T11:01:47.066Z,1009.98
2016-05-23T11:02:47.069Z,1009.96
2016-05-23T11:03:47.104Z,1010.04
2016-05-23T11:04:47.137Z,1010.04
2016-05-23T11:05:47.156Z,1010.11
2016-05-23T11:06:47.190Z,1010.05
2016-05-23T11:07:47.208Z,1010.11
2016-05-23T11:08:47.242Z,1010.12
2016-05-23T11:09:47.260Z,1010.05
2016-05-23T11:10:47.294Z,1010.15
2016-05-23T11:11:47.328Z,1010.17
2016-05-23T11:12:47.346Z,1010.17
2016-05-23T11:13:47.364Z,1010.1
2016-05-23T11:14:47.398Z,1010.17
2016-05-23T11:15:47.417Z,1010.14
2016-05-23T11:16:47.451Z,1010.14
2016-05-23T11:17:47.470Z,1010.25
2016-05-23T11:18:47.503Z,1010.13
2016-05-23T11:19:47.553Z,1010.26
2016-05-23T11:20:47.555Z,1010.31
2016-05-23T11:21:47.574Z,1010.29
2016-05-23T11:22:47.608Z,1010.35
2016-05-23T11:23:47.625Z,1010.31
2016-05-23T11:24:47.660Z,1010.31
2016-05-23T11:25:47.678Z,1010.33
2016-05-23T11:26:47.759Z,1010.37
2016-05-23T11:27:47.730Z,1010.36
2016-05-23T11:28:47.764Z,1010.39
2016-05-23T11:29:47.783Z,1010.37
2016-05-23T11:30:47.816Z,1010.37
2016-05-23T11:31:47.851Z,1010.45
2016-05-23T11:32:47.869Z,1010.41
2016-05-23T11:33:47.888Z,1010.42
2016-05-23T11:34:47.921Z,1010.49
2016-05-23T11:35:47.955Z,1010.47
2016-05-23T11:36:47.990Z,1010.44
2016-05-23T11:37:47.992Z,1010.48
2016-05-23T11:38:48.026Z,1010.52
2016-05-23T11:39:48.043Z,1010.46
2016-05-23T11:40:48.078Z,1010.53
2016-05-23T11:41:48.096Z,1010.55
2016-05-23T11:42:48.130Z,1010.47
2016-05-23T11:43:48.148Z,1010.52
2016-05-23T11:44:48.182Z,1010.51
2016-05-23T11:45:48.200Z,1010.47
2016-05-23T11:46:48.234Z,1010.5
2016-05-23T11:47:48.269Z,1010.52
2016-05-23T11:48:48.286Z,1010.51
2016-05-23T11:49:48.320Z,1010.51
2016-05-23T11:50:48.339Z,1010.49
2016-05-23T11:51:48.373Z,1010.61
2016-05-23T11:52:48.392Z,1010.52
2016-05-23T11:53:48.425Z,1010.55
2016-05-23T11:54:48.444Z,1010.56
2016-05-23T11:55:48.477Z,1010.53
2016-05-23T11:56:48.496Z,1010.47
2016-05-23T11:57:48.530Z,1010.55
2016-05-23T11:58:48.549Z,1010.49
2016-05-23T11:59:48.848Z,1010.53
2016-05-23T12:00:48.599Z,1010.49
2016-05-23T12:01:48.634Z,1010.52
2016-05-23T12:02:48.668Z,1010.55
2016-05-23T12:03:48.687Z,1010.55
2016-05-23T12:04:48.705Z,1010.56
2016-05-23T12:05:48.739Z,1010.58
2016-05-23T12:06:48.757Z,1010.6
2016-05-23T12:07:48.791Z,1010.62